Nautic — A8HQ3 — position and weather

sailwx.info

Track history (hours):
 
Tides and Currents Weather Stations Pressure Air Temp Water Temp Dewpoint Dewpoint Depression Visibility Wind Speed Wind Dir Waves Ship Positions

Nautic

Last reported at 2015-Aug-28 14:21 UTC. Time now 2015-Sep-03 19:16 UTC.
Position N 05°43' E 097°37'.

Length 274 m.

Type: Ship. MMSI: 636012754.

Date/timePositionNaut miles runAvg speedWind from/ knotsBaromVisibWave heightAir tempDewpointWater temp
2015-Aug-28 14:21N 05°43' E 097°37'22714.3
2015-Aug-27 22:29N 03°15' E 100°30'2814.5
2015-Aug-27 20:33N 02°58' E 100°52'1313.2
2015-Aug-27 19:33N 02°49' E 101°02'2914.5
2015-Aug-27 17:34N 02°36' E 101°28'15714.3
2015-Aug-27 06:33N 01°11' E 103°40'1 1.4
2015-Aug-27 05:31N 01°12' E 103°41'0 0.0
2015-Aug-27 04:07N 01°12' E 103°41'0 0.0
2015-Aug-27 03:31N 01°12' E 103°41'0 0.1
2015-Aug-27 02:28N 01°12' E 103°41'1 0.1
2015-Aug-26 15:07N 01°12' E 103°42'2 3.0
2015-Aug-26 14:33N 01°14' E 103°42'0 0.0
2015-Aug-26 01:33N 01°14' E 103°41'0 0.0
2015-Aug-24 22:09N 01°14' E 103°41'0 0.1
2015-Aug-24 21:33N 01°14' E 103°41'3 2.7
2015-Aug-24 20:33N 01°12' E 103°40'1 0.2
2015-Aug-24 15:20N 01°12' E 103°41'0 0.1
2015-Aug-24 14:29N 01°12' E 103°41'0 0.0
2015-Aug-24 13:32N 01°12' E 103°41'0 0.0
2015-Aug-24 11:32N 01°12' E 103°41'0 0.1
2015-Aug-24 10:26N 01°12' E 103°41'0 0.0
2015-Aug-24 09:29N 01°12' E 103°41'0 0.1
2015-Aug-24 08:29N 01°12' E 103°41'0 0.1
2015-Aug-24 07:32N 01°12' E 103°41'0 0.1
2015-Aug-24 06:20N 01°12' E 103°41'0 0.0
2015-Aug-24 05:26N 01°12' E 103°41'0 0.0
2015-Aug-24 03:33N 01°12' E 103°41'0 0.0
2015-Aug-24 01:33N 01°12' E 103°41'0 0.1
2015-Aug-24 00:33N 01°12' E 103°41'0 0.2
2015-Aug-23 23:33N 01°12' E 103°41'0 0.0
2015-Aug-23 17:27N 01°12' E 103°41'0 0.0
2015-Aug-23 16:24N 01°12' E 103°41'0 0.0
2015-Aug-23 15:27N 01°12' E 103°41'0 0.1
2015-Aug-23 14:24N 01°12' E 103°41'0 0.0
2015-Aug-23 13:33N 01°12' E 103°41'0 0.0
2015-Aug-23 12:30N 01°12' E 103°41'0 0.0
2015-Aug-23 11:24N 01°12' E 103°41'0 0.0
2015-Aug-23 09:27N 01°12' E 103°41'0 0.1
2015-Aug-23 08:33N 01°12' E 103°41'0 0.0
2015-Aug-23 07:33N 01°12' E 103°41'0 0.1
2015-Aug-23 06:33N 01°12' E 103°41'0 0.1
2015-Aug-23 05:27N 01°12' E 103°41'0 0.0
2015-Aug-23 04:27N 01°12' E 103°41'0 0.0
2015-Aug-23 03:15N 01°12' E 103°41'0 0.0
2015-Aug-23 02:06N 01°12' E 103°41'0 0.0
2015-Aug-23 01:30N 01°12' E 103°41'0 0.0
2015-Aug-23 00:21N 01°12' E 103°41'0 0.2
2015-Aug-22 23:33N 01°12' E 103°41'0 0.1
2015-Aug-22 22:09N 01°12' E 103°41'0 0.0
2015-Aug-22 17:24N 01°12' E 103°41'0 0.1
2015-Aug-22 16:33N 01°12' E 103°41'0 0.0
2015-Aug-22 15:12N 01°12' E 103°41'0 0.0
2015-Aug-22 14:27N 01°12' E 103°41'0 0.0
2015-Aug-22 13:30N 01°12' E 103°41'0 0.0
2015-Aug-22 12:33N 01°12' E 103°41'3 0.1
2015-Aug-21 10:15N 01°15' E 103°41'0 0.2
2015-Aug-21 09:33N 01°15' E 103°42'2 2.1
2015-Aug-21 08:33N 01°13' E 103°41'1 0.5
2015-Aug-21 06:24N 01°14' E 103°40'0 0.1
2015-Aug-21 05:15N 01°14' E 103°39'0 0.0
2015-Aug-20 23:24N 01°13' E 103°39'0 0.0
2015-Aug-20 16:30N 01°14' E 103°39'0 0.0
2015-Aug-20 06:33N 01°14' E 103°39'0 0.0
2015-Aug-20 03:24N 01°14' E 103°39'0 0.0
2015-Aug-19 22:06N 01°13' E 103°39'0 0.0
2015-Aug-19 20:27N 01°13' E 103°39'0 0.1
2015-Aug-19 15:21N 01°14' E 103°39'0 0.0
2015-Aug-19 11:27N 01°13' E 103°39'0 0.1
2015-Aug-19 09:09N 01°14' E 103°39'0 0.0
2015-Aug-19 05:14N 01°14' E 103°39'  
Track history (hours):
 
Tides and Currents Weather Stations Pressure Air Temp Water Temp Dewpoint Dewpoint Depression Visibility Wind Speed Wind Dir Waves Ship Positions

Nautic

Last reported at 2015-Aug-28 14:21 UTC. Time now 2015-Sep-03 19:16 UTC.
Position N 05°43' E 097°37'.

Length 274 m.

Type: Ship. MMSI: 636012754.

Date/timePositionNaut miles runAvg speedWind from/ knotsBaromVisibWave heightAir tempDewpointWater temp
2015-Aug-28 14:21N 05°43' E 097°37'22714.3
2015-Aug-27 22:29N 03°15' E 100°30'2814.5
2015-Aug-27 20:33N 02°58' E 100°52'1313.2
2015-Aug-27 19:33N 02°49' E 101°02'2914.5
2015-Aug-27 17:34N 02°36' E 101°28'15714.3
2015-Aug-27 06:33N 01°11' E 103°40'1 1.4
2015-Aug-27 05:31N 01°12' E 103°41'0 0.0
2015-Aug-27 04:07N 01°12' E 103°41'0 0.0
2015-Aug-27 03:31N 01°12' E 103°41'0 0.1
2015-Aug-27 02:28N 01°12' E 103°41'1 0.1
2015-Aug-26 15:07N 01°12' E 103°42'2 3.0
2015-Aug-26 14:33N 01°14' E 103°42'0 0.0
2015-Aug-26 01:33N 01°14' E 103°41'0 0.0
2015-Aug-24 22:09N 01°14' E 103°41'0 0.1
2015-Aug-24 21:33N 01°14' E 103°41'3 2.7
2015-Aug-24 20:33N 01°12' E 103°40'1 0.2
2015-Aug-24 15:20N 01°12' E 103°41'0 0.1
2015-Aug-24 14:29N 01°12' E 103°41'0 0.0
2015-Aug-24 13:32N 01°12' E 103°41'0 0.0
2015-Aug-24 11:32N 01°12' E 103°41'0 0.1
2015-Aug-24 10:26N 01°12' E 103°41'0 0.0
2015-Aug-24 09:29N 01°12' E 103°41'0 0.1
2015-Aug-24 08:29N 01°12' E 103°41'0 0.1
2015-Aug-24 07:32N 01°12' E 103°41'0 0.1
2015-Aug-24 06:20N 01°12' E 103°41'0 0.0
2015-Aug-24 05:26N 01°12' E 103°41'0 0.0
2015-Aug-24 03:33N 01°12' E 103°41'0 0.0
2015-Aug-24 01:33N 01°12' E 103°41'0 0.1
2015-Aug-24 00:33N 01°12' E 103°41'0 0.2
2015-Aug-23 23:33N 01°12' E 103°41'0 0.0
2015-Aug-23 17:27N 01°12' E 103°41'0 0.0
2015-Aug-23 16:24N 01°12' E 103°41'0 0.0
2015-Aug-23 15:27N 01°12' E 103°41'0 0.1
2015-Aug-23 14:24N 01°12' E 103°41'0 0.0
2015-Aug-23 13:33N 01°12' E 103°41'0 0.0
2015-Aug-23 12:30N 01°12' E 103°41'0 0.0
2015-Aug-23 11:24N 01°12' E 103°41'0 0.0
2015-Aug-23 09:27N 01°12' E 103°41'0 0.1
2015-Aug-23 08:33N 01°12' E 103°41'0 0.0
2015-Aug-23 07:33N 01°12' E 103°41'0 0.1
2015-Aug-23 06:33N 01°12' E 103°41'0 0.1
2015-Aug-23 05:27N 01°12' E 103°41'0 0.0
2015-Aug-23 04:27N 01°12' E 103°41'0 0.0
2015-Aug-23 03:15N 01°12' E 103°41'0 0.0
2015-Aug-23 02:06N 01°12' E 103°41'0 0.0
2015-Aug-23 01:30N 01°12' E 103°41'0 0.0
2015-Aug-23 00:21N 01°12' E 103°41'0 0.2
2015-Aug-22 23:33N 01°12' E 103°41'0 0.1
2015-Aug-22 22:09N 01°12' E 103°41'0 0.0
2015-Aug-22 17:24N 01°12' E 103°41'0 0.1
2015-Aug-22 16:33N 01°12' E 103°41'0 0.0
2015-Aug-22 15:12N 01°12' E 103°41'0 0.0
2015-Aug-22 14:27N 01°12' E 103°41'0 0.0
2015-Aug-22 13:30N 01°12' E 103°41'0 0.0
2015-Aug-22 12:33N 01°12' E 103°41'3 0.1
2015-Aug-21 10:15N 01°15' E 103°41'0 0.2
2015-Aug-21 09:33N 01°15' E 103°42'2 2.1
2015-Aug-21 08:33N 01°13' E 103°41'1 0.5
2015-Aug-21 06:24N 01°14' E 103°40'0 0.1
2015-Aug-21 05:15N 01°14' E 103°39'0 0.0
2015-Aug-20 23:24N 01°13' E 103°39'0 0.0
2015-Aug-20 16:30N 01°14' E 103°39'0 0.0
2015-Aug-20 06:33N 01°14' E 103°39'0 0.0
2015-Aug-20 03:24N 01°14' E 103°39'0 0.0
2015-Aug-19 22:06N 01°13' E 103°39'0 0.0
2015-Aug-19 20:27N 01°13' E 103°39'0 0.1
2015-Aug-19 15:21N 01°14' E 103°39'0 0.0
2015-Aug-19 11:27N 01°13' E 103°39'0 0.1
2015-Aug-19 09:09N 01°14' E 103°39'0 0.0
2015-Aug-19 05:14N 01°14' E 103°39'  

Dump ship's entire track history